createdAt,value
2023-04-20T00:02:03.665Z,100162.37
2023-04-20T00:05:07.945Z,100161.22
2023-04-20T00:08:10.779Z,100160.22
2023-04-20T00:11:13.440Z,100156.69
2023-04-20T00:14:16.347Z,100159.00
2023-04-20T00:17:19.091Z,100159.97
2023-04-20T00:20:21.711Z,100166.19
2023-04-20T00:23:24.281Z,100156.41
2023-04-20T00:26:27.132Z,100158.28
2023-04-20T00:29:30.107Z,100149.31
2023-04-20T00:32:33.251Z,100152.41
2023-04-20T00:35:35.961Z,100152.41
2023-04-20T00:38:38.543Z,100151.72
2023-04-20T00:41:41.150Z,100146.31
2023-04-20T00:44:43.738Z,100143.84
2023-04-20T00:47:46.473Z,100150.72
2023-04-20T00:50:52.406Z,100145.59
2023-04-20T00:53:55.054Z,100144.53
2023-04-20T00:56:58.449Z,100142.94
2023-04-20T01:00:01.744Z,100142.75
2023-04-20T01:03:05.232Z,100143.53
2023-04-20T01:06:08.447Z,100140.16
2023-04-20T01:09:12.387Z,100141.59
2023-04-20T01:12:14.942Z,100137.25
2023-04-20T01:15:19.696Z,100139.13
2023-04-20T01:18:22.910Z,100136.38
2023-04-20T01:21:25.637Z,100134.53
2023-04-20T01:24:28.257Z,100139.03
2023-04-20T01:27:31.388Z,100126.09
2023-04-20T01:30:37.868Z,100135.63
2023-04-20T01:33:40.963Z,100136.31
2023-04-20T01:36:44.485Z,100132.78
2023-04-20T01:39:47.088Z,100138.06
2023-04-20T01:42:49.700Z,100131.09
2023-04-20T01:45:52.345Z,100138.75
2023-04-20T01:48:54.935Z,100133.25
2023-04-20T01:51:57.786Z,100135.00
2023-04-20T01:55:00.349Z,100131.56
2023-04-20T01:58:03.034Z,100130.69
2023-04-20T02:01:05.942Z,100136.06
2023-04-20T02:04:09.360Z,100133.31
2023-04-20T02:07:11.683Z,100135.00
2023-04-20T02:10:14.691Z,100135.09
2023-04-20T02:13:20.425Z,100136.53
2023-04-20T02:16:23.957Z,100147.91
2023-04-20T02:19:26.551Z,100136.63
2023-04-20T02:22:29.249Z,100136.78
2023-04-20T02:25:31.912Z,100140.81
2023-04-20T02:28:34.559Z,100138.91
2023-04-20T02:31:39.690Z,100140.50
2023-04-20T02:34:42.948Z,100140.62
2023-04-20T02:37:46.099Z,100140.50
2023-04-20T02:40:48.685Z,100144.12
2023-04-20T02:43:51.826Z,100140.62
2023-04-20T02:46:54.662Z,100143.94
2023-04-20T02:49:57.610Z,100143.19
2023-04-20T02:53:00.240Z,100142.56
2023-04-20T02:56:03.591Z,100143.97
2023-04-20T02:59:07.388Z,100148.22
2023-04-20T03:02:10.667Z,100150.84
2023-04-20T03:05:13.655Z,100161.06
2023-04-20T03:08:16.978Z,100160.97
2023-04-20T03:11:20.894Z,100160.19
2023-04-20T03:14:23.594Z,100165.53
2023-04-20T03:17:26.176Z,100168.84
2023-04-20T03:20:29.837Z,100162.84
2023-04-20T03:23:32.540Z,100160.97
2023-04-20T03:26:36.478Z,100159.00
2023-04-20T03:29:40.298Z,100160.75
2023-04-20T03:32:42.951Z,100153.81
2023-04-20T03:35:46.303Z,100166.37
2023-04-20T03:38:48.920Z,100167.41
2023-04-20T03:41:51.482Z,100162.03
2023-04-20T03:44:54.165Z,100167.13
2023-04-20T03:47:57.591Z,100169.78
2023-04-20T03:51:01.130Z,100177.50
2023-04-20T03:54:03.874Z,100179.97
2023-04-20T03:57:06.582Z,100173.91
2023-04-20T04:00:11.172Z,100178.31
2023-04-20T04:03:21.400Z,100183.41
2023-04-20T04:06:24.579Z,100168.66
2023-04-20T04:09:27.165Z,100175.66
2023-04-20T04:12:30.065Z,100174.84
2023-04-20T04:15:32.383Z,100181.84
2023-04-20T04:18:35.500Z,100184.62
2023-04-20T04:21:41.441Z,100181.06
2023-04-20T04:24:44.842Z,100184.62
2023-04-20T04:27:51.089Z,100179.75
2023-04-20T04:30:54.338Z,100188.63
2023-04-20T04:33:57.485Z,100181.12
2023-04-20T04:37:01.199Z,100187.16
2023-04-20T04:40:07.597Z,100181.12
2023-04-20T04:43:11.248Z,100179.44
2023-04-20T04:46:14.697Z,100185.84
2023-04-20T04:49:18.830Z,100176.28
2023-04-20T04:52:22.006Z,100179.81
2023-04-20T04:55:24.870Z,100179.66
2023-04-20T04:58:27.155Z,100186.88
2023-04-20T05:01:30.087Z,100186.13
2023-04-20T05:04:32.507Z,100189.66
2023-04-20T05:07:35.466Z,100186.34
2023-04-20T05:10:37.954Z,100189.97
2023-04-20T05:13:41.597Z,100194.16
2023-04-20T05:16:43.998Z,100198.94
2023-04-20T05:19:46.907Z,100201.50
2023-04-20T05:22:49.198Z,100201.97
2023-04-20T05:25:52.092Z,100196.34
2023-04-20T05:28:54.946Z,100204.62
2023-04-20T05:31:58.007Z,100200.56
2023-04-20T05:35:00.822Z,100213.91
2023-04-20T05:38:06.368Z,100206.06
2023-04-20T05:41:08.887Z,100216.44
2023-04-20T05:44:11.805Z,100215.75
2023-04-20T05:47:14.438Z,100214.34
2023-04-20T05:50:17.299Z,100226.87
2023-04-20T05:53:19.701Z,100226.87
2023-04-20T05:56:23.412Z,100219.19
2023-04-20T05:59:26.315Z,100222.72
2023-04-20T06:02:29.492Z,100222.06
2023-04-20T06:05:32.263Z,100227.66
2023-04-20T06:08:34.877Z,100223.06
2023-04-20T06:11:37.557Z,100227.47
2023-04-20T06:14:40.164Z,100224.06
2023-04-20T06:17:42.799Z,100228.53
2023-04-20T06:20:45.859Z,100223.50
2023-04-20T06:23:48.919Z,100225.34
2023-04-20T06:26:51.489Z,100228.28
2023-04-20T06:29:54.823Z,100230.06
2023-04-20T06:32:57.490Z,100231.62
2023-04-20T06:36:01.008Z,100231.94
2023-04-20T06:39:04.478Z,100231.16
2023-04-20T06:42:08.705Z,100234.16
2023-04-20T06:45:11.601Z,100242.47
2023-04-20T06:48:30.110Z,100240.13
2023-04-20T06:51:34.691Z,100229.22
2023-04-20T06:54:37.412Z,100227.81
2023-04-20T06:57:40.172Z,100223.56
2023-04-20T07:00:42.844Z,100229.12
2023-04-20T07:03:47.141Z,100226.03
2023-04-20T07:06:53.768Z,100225.38
2023-04-20T07:09:57.057Z,100223.19
2023-04-20T07:12:59.722Z,100227.84
2023-04-20T07:16:02.772Z,100225.47
2023-04-20T07:19:05.638Z,100226.72
2023-04-20T07:22:08.223Z,100222.03
2023-04-20T07:25:11.037Z,100226.75
2023-04-20T07:28:13.782Z,100226.87
2023-04-20T07:31:16.639Z,100223.53
2023-04-20T07:34:19.582Z,100224.66
2023-04-20T07:37:22.614Z,100230.87
2023-04-20T07:40:25.356Z,100228.53
2023-04-20T07:43:27.956Z,100232.28
2023-04-20T07:46:30.862Z,100234.25
2023-04-20T07:49:36.352Z,100227.28
2023-04-20T07:52:38.980Z,100222.09
2023-04-20T07:55:41.736Z,100223.87
2023-04-20T07:58:44.510Z,100221.19
2023-04-20T08:01:47.130Z,100225.47
2023-04-20T08:04:50.330Z,100223.44
2023-04-20T08:07:52.716Z,100220.44
2023-04-20T08:10:58.805Z,100225.34
2023-04-20T08:14:01.554Z,100223.03
2023-04-20T08:17:04.413Z,100219.38
2023-04-20T08:20:07.297Z,100223.63
2023-04-20T08:23:10.223Z,100216.22
2023-04-20T08:26:15.098Z,100213.19
2023-04-20T08:29:18.017Z,100210.75
2023-04-20T08:32:22.822Z,100210.81
2023-04-20T08:35:25.828Z,100212.50
2023-04-20T08:38:33.668Z,100206.50
2023-04-20T08:41:37.292Z,100215.06
2023-04-20T08:44:39.799Z,100210.78
2023-04-20T08:47:43.040Z,100205.28
2023-04-20T08:50:45.498Z,100213.44
2023-04-20T08:53:48.561Z,100206.59
2023-04-20T08:56:51.312Z,100201.81
2023-04-20T08:59:54.487Z,100210.75
2023-04-20T09:02:58.963Z,100204.81
2023-04-20T09:06:02.216Z,100209.00
2023-04-20T09:09:09.950Z,100202.22
2023-04-20T09:12:12.813Z,100204.19
2023-04-20T09:15:25.148Z,100210.50
2023-04-20T09:18:28.045Z,100202.41
2023-04-20T09:21:31.407Z,100190.75
2023-04-20T09:24:38.224Z,100200.13
2023-04-20T09:27:40.599Z,100189.72
2023-04-20T09:30:45.459Z,100193.75
2023-04-20T09:34:03.931Z,100191.28
2023-04-20T09:37:09.159Z,100190.22
2023-04-20T09:40:11.824Z,100191.94
2023-04-20T09:43:24.502Z,100194.97
2023-04-20T09:46:28.827Z,100190.22
2023-04-20T09:49:32.145Z,100180.94
2023-04-20T09:52:38.260Z,100184.09
2023-04-20T09:55:45.608Z,100185.16
2023-04-20T09:58:51.157Z,100181.41
2023-04-20T10:01:54.207Z,100181.41
2023-04-20T10:04:58.000Z,100173.00
2023-04-20T10:08:03.787Z,100176.06
2023-04-20T10:11:06.778Z,100161.22
2023-04-20T10:14:16.696Z,100160.03
2023-04-20T10:17:29.794Z,100162.50
2023-04-20T10:20:32.654Z,100160.25
2023-04-20T10:23:35.566Z,100162.78
2023-04-20T10:26:39.010Z,100165.22
2023-04-20T10:29:42.126Z,100161.56
2023-04-20T10:32:44.764Z,100165.59
2023-04-20T10:35:51.972Z,100156.97
2023-04-20T10:38:54.842Z,100159.09
2023-04-20T10:42:03.905Z,100148.50
2023-04-20T10:45:06.665Z,100149.91
2023-04-20T10:48:09.888Z,100142.91
2023-04-20T10:51:12.846Z,100145.19
2023-04-20T10:54:17.686Z,100145.22
2023-04-20T10:57:21.369Z,100143.16
2023-04-20T11:00:25.993Z,100141.25
2023-04-20T11:03:30.440Z,100132.94
2023-04-20T11:06:33.649Z,100128.69
2023-04-20T11:09:38.298Z,100120.78
2023-04-20T11:12:41.207Z,100133.34
2023-04-20T11:15:43.857Z,100125.59
2023-04-20T11:18:55.770Z,100129.47
2023-04-20T11:21:58.429Z,100127.78
2023-04-20T11:25:08.412Z,100123.06
2023-04-20T12:04:18.568Z,100116.25
2023-04-20T12:07:22.098Z,100104.13
2023-04-20T12:10:24.749Z,100110.56
2023-04-20T12:13:27.883Z,100104.25
2023-04-20T12:16:30.430Z,100101.50
2023-04-20T12:19:33.419Z,100089.38
2023-04-20T12:22:35.865Z,100101.13
2023-04-20T12:25:39.020Z,100090.16
2023-04-20T12:28:41.360Z,100091.81
2023-04-20T12:31:44.351Z,100082.97
2023-04-20T12:34:46.832Z,100091.66
2023-04-20T12:37:50.246Z,100080.13
2023-04-20T12:40:53.247Z,100076.09
2023-04-20T12:43:56.328Z,100079.78
2023-04-20T12:46:58.862Z,100081.53
2023-04-20T12:50:02.227Z,100069.53
2023-04-20T12:53:04.610Z,100068.03
2023-04-20T12:56:07.772Z,100078.50
2023-04-20T12:59:11.208Z,100071.84
2023-04-20T13:02:14.312Z,100069.62
2023-04-20T13:05:17.297Z,100058.34
2023-04-20T13:08:20.181Z,100049.91
2023-04-20T13:11:22.532Z,100054.22
2023-04-20T13:14:25.801Z,100051.34
2023-04-20T13:17:28.126Z,100055.28
2023-04-20T13:20:31.424Z,100047.00
2023-04-20T13:23:33.750Z,100052.84
2023-04-20T13:26:37.106Z,100057.50
2023-04-20T13:29:40.313Z,100053.38
2023-04-20T13:32:43.203Z,100050.37
2023-04-20T13:35:45.581Z,100046.47
2023-04-20T13:38:53.276Z,100039.16
2023-04-20T13:41:55.824Z,100041.78
2023-04-20T13:44:58.743Z,100041.94
2023-04-20T13:48:01.398Z,100036.56
2023-04-20T13:51:04.597Z,100035.84
2023-04-20T13:54:07.497Z,100033.47
2023-04-20T13:57:12.464Z,100033.59
2023-04-20T14:00:14.875Z,100033.81
2023-04-20T14:03:20.307Z,100034.56
2023-04-20T14:06:22.856Z,100034.31
2023-04-20T14:09:25.844Z,100036.72
2023-04-20T14:12:28.590Z,100025.00
2023-04-20T14:15:31.814Z,100026.59
2023-04-20T14:18:34.205Z,100020.44
2023-04-20T14:21:37.177Z,100016.47
2023-04-20T14:24:40.713Z,100012.34
2023-04-20T14:27:43.608Z,100011.44
2023-04-20T14:30:46.502Z,100011.75
2023-04-20T14:33:49.468Z,100008.12
2023-04-20T14:36:51.759Z,100004.50
2023-04-20T14:39:54.708Z,100001.72
2023-04-20T14:42:57.939Z,100008.91
2023-04-20T14:46:00.971Z,100001.25
2023-04-20T14:49:03.285Z,100009.16
2023-04-20T14:52:07.047Z,100007.41
2023-04-20T14:55:09.508Z,99998.63
2023-04-20T14:58:12.434Z,99993.37
2023-04-20T15:01:15.039Z,99985.25
2023-04-20T15:04:18.184Z,99989.75
2023-04-20T15:07:20.997Z,99990.94
2023-04-20T15:10:24.479Z,99993.00
2023-04-20T15:13:26.821Z,99992.22
2023-04-20T15:16:29.757Z,99990.44
2023-04-20T15:19:32.134Z,100000.25
2023-04-20T15:22:37.846Z,99995.97
2023-04-20T15:25:40.300Z,99991.72
2023-04-20T15:28:43.257Z,99994.47
2023-04-20T15:31:46.809Z,100002.47
2023-04-20T15:34:50.315Z,99990.97
2023-04-20T15:37:52.863Z,99998.84
2023-04-20T15:40:55.781Z,99994.31
2023-04-20T15:43:58.042Z,99993.66
2023-04-20T15:47:01.577Z,99992.00
2023-04-20T15:50:03.928Z,99996.56
2023-04-20T15:53:07.454Z,100001.22
2023-04-20T15:56:09.756Z,100007.31
2023-04-20T15:59:12.681Z,100016.19
2023-04-20T16:02:15.013Z,100022.66
2023-04-20T16:05:18.072Z,100025.66
2023-04-20T16:08:21.137Z,100024.06
2023-04-20T16:11:24.647Z,100019.84
2023-04-20T16:14:26.929Z,100019.97
2023-04-20T16:17:30.016Z,100020.94
2023-04-20T16:20:32.336Z,100026.28
2023-04-20T16:23:35.739Z,100014.84
2023-04-20T16:26:39.477Z,100028.13
2023-04-20T16:29:43.757Z,100023.75
2023-04-20T16:32:46.333Z,100029.97
2023-04-20T16:35:49.299Z,100028.22
2023-04-20T16:38:51.807Z,100034.41
2023-04-20T16:41:54.714Z,100034.44
2023-04-20T16:44:57.152Z,100035.34
2023-04-20T16:48:00.791Z,100037.06
2023-04-20T16:51:03.355Z,100039.72
2023-04-20T16:54:06.436Z,100045.00
2023-04-20T16:57:09.604Z,100043.25
2023-04-20T17:00:14.171Z,100045.91
2023-04-20T17:03:17.107Z,100045.91
2023-04-20T17:06:20.484Z,100052.03
2023-04-20T17:09:23.180Z,100054.72
2023-04-20T17:12:26.419Z,100060.87
2023-04-20T17:15:28.721Z,100059.97
2023-04-20T17:18:34.243Z,100060.84
2023-04-20T17:21:36.618Z,100065.22
2023-04-20T17:24:39.513Z,100063.44
2023-04-20T17:27:41.991Z,100062.59
2023-04-20T17:30:46.607Z,100061.69
2023-04-20T17:33:49.120Z,100066.09
2023-04-20T17:36:52.095Z,100067.00
2023-04-20T17:40:13.631Z,100073.09
2023-04-20T17:43:28.456Z,100079.16
2023-04-20T17:46:34.309Z,100086.19
2023-04-20T17:49:37.605Z,100080.00
2023-04-20T17:52:40.555Z,100087.00
2023-04-20T17:55:43.584Z,100090.50
2023-04-20T17:58:46.529Z,100088.69
2023-04-20T18:01:49.783Z,100094.81
2023-04-20T18:04:52.801Z,100093.94
2023-04-20T18:08:09.373Z,100100.94
2023-04-20T18:11:14.699Z,100104.47
2023-04-20T18:14:17.826Z,100107.09
2023-04-20T18:17:36.504Z,100116.72
2023-04-20T18:24:31.552Z,100124.66
2023-04-20T18:38:59.550Z,100141.41
2023-04-20T18:42:07.467Z,100146.56
2023-04-20T18:45:11.409Z,100153.66
2023-04-20T18:48:15.720Z,100156.19
2023-04-20T18:51:19.245Z,100159.66
2023-04-20T18:54:22.158Z,100159.69
2023-04-20T18:57:26.664Z,100163.41
2023-04-20T19:00:29.673Z,100166.94
2023-04-20T19:03:32.251Z,100166.13
2023-04-20T19:06:35.320Z,100163.72
2023-04-20T19:09:37.837Z,100170.25
2023-04-20T19:12:40.931Z,100162.41
2023-04-20T19:15:44.106Z,100170.62
2023-04-20T19:18:48.508Z,100173.88
2023-04-20T19:21:50.819Z,100174.69
2023-04-20T19:24:53.725Z,100172.16
2023-04-20T19:27:56.193Z,100175.87
2023-04-20T19:30:59.212Z,100179.56
2023-04-20T19:34:01.502Z,100179.50
2023-04-20T19:37:04.399Z,100190.09
2023-04-20T19:40:07.489Z,100184.97
2023-04-20T19:43:10.527Z,100194.59
2023-04-20T19:49:18.692Z,100199.06
2023-04-20T19:52:21.405Z,100198.25
2023-04-20T19:55:24.419Z,100196.50
2023-04-20T19:58:26.807Z,100196.53
2023-04-20T20:01:29.822Z,100196.50
2023-04-20T20:04:32.624Z,100203.50
2023-04-20T20:07:35.650Z,100202.81
2023-04-20T20:10:38.278Z,100205.53
2023-04-20T20:13:40.898Z,100207.25
2023-04-20T20:16:43.622Z,100209.87
2023-04-20T20:19:46.278Z,100208.97
2023-04-20T20:22:50.312Z,100210.53
2023-04-20T20:25:52.869Z,100214.03
2023-04-20T20:28:55.534Z,100207.03
2023-04-20T20:31:58.109Z,100216.66
2023-04-20T20:35:00.754Z,100214.03
2023-04-20T20:38:07.689Z,100214.06
2023-04-20T20:41:10.913Z,100207.16
2023-04-20T20:44:13.624Z,100212.25
2023-04-20T20:47:16.519Z,100214.78
2023-04-20T20:50:20.086Z,100219.09
2023-04-20T20:53:22.702Z,100232.25
2023-04-20T20:56:25.283Z,100228.81
2023-04-20T20:59:30.405Z,100233.06
2023-04-20T21:02:33.096Z,100231.22
2023-04-20T21:05:35.962Z,100237.31
2023-04-20T21:08:38.494Z,100235.56
2023-04-20T21:11:41.073Z,100239.91
2023-04-20T21:14:43.690Z,100237.19
2023-04-20T21:17:46.284Z,100244.19
2023-04-20T21:20:48.904Z,100239.78
2023-04-20T21:23:51.501Z,100243.25
2023-04-20T21:26:55.686Z,100242.38
2023-04-20T21:29:58.262Z,100241.56
2023-04-20T21:33:00.888Z,100239.78
2023-04-20T21:36:03.682Z,100239.66
2023-04-20T21:39:06.329Z,100238.66
2023-04-20T21:42:08.958Z,100237.56
2023-04-20T21:45:11.876Z,100237.53
2023-04-20T21:48:14.539Z,100238.34
2023-04-20T21:51:18.292Z,100241.81
2023-04-20T21:54:21.907Z,100239.09
2023-04-20T21:57:24.726Z,100247.91
2023-04-20T22:00:27.398Z,100246.22
2023-04-20T22:03:31.435Z,100246.19
2023-04-20T22:06:33.893Z,100240.97
2023-04-20T22:09:36.830Z,100241.84
2023-04-20T22:12:40.801Z,100247.03
2023-04-20T22:15:44.258Z,100248.69
2023-04-20T22:18:46.877Z,100254.59
2023-04-20T22:21:49.771Z,100248.47
2023-04-20T22:24:52.068Z,100237.84
2023-04-20T22:27:55.006Z,100237.84
2023-04-20T22:30:57.382Z,100237.66
2023-04-20T22:34:00.686Z,100238.44
2023-04-20T22:37:03.120Z,100237.53
2023-04-20T22:40:06.364Z,100240.22
2023-04-20T22:43:08.737Z,100234.84
2023-04-20T22:46:12.021Z,100239.19
2023-04-20T22:49:15.356Z,100233.06
2023-04-20T22:52:18.277Z,100231.38
2023-04-20T22:55:20.627Z,100235.72
2023-04-20T22:58:23.661Z,100234.66
2023-04-20T23:01:26.088Z,100230.31
2023-04-20T23:04:29.747Z,100237.34
2023-04-20T23:07:33.078Z,100232.94
2023-04-20T23:10:35.934Z,100238.13
2023-04-20T23:13:38.185Z,100234.69
2023-04-20T23:16:41.271Z,100233.84
2023-04-20T23:19:43.655Z,100235.59
2023-04-20T23:22:46.531Z,100233.81
2023-04-20T23:25:48.857Z,100232.94
2023-04-20T23:28:52.272Z,100237.31
2023-04-20T23:31:54.786Z,100226.69
2023-04-20T23:34:57.698Z,100227.56
2023-04-20T23:38:00.251Z,100226.66
2023-04-20T23:41:08.163Z,100234.53
2023-04-20T23:44:10.500Z,100231.88
2023-04-20T23:47:14.568Z,100227.53
2023-04-20T23:50:16.829Z,100234.47
2023-04-20T23:53:22.758Z,100234.41
2023-04-20T23:56:25.192Z,100236.94
2023-04-20T23:59:28.059Z,100241.34
